ADDS METAR Data INFO
IDs: Format: Raw Decoded Include TAF

Data at: 0450 UTC 22 Apr 2018

METAR for:KCVG (Cincinnati Intl, KY, US)
Text:KCVG 220352Z 05008KT 10SM SCT150 OVC170 12/M05 A3030 RMK AO2 SLP260 T01171050
Temperature: 11.7°C ( 53°F)
Dewpoint: -5.0°C ( 23°F) [RH = 31%]
Pressure (altimeter):30.30 inches Hg (1026.2 mb) [Sea level pressure: 1026.0 mb]
Winds:from the NE (50 degrees) at 9 MPH (8 knots; 4.1 m/s)
Visibility:10 or more sm (16+ km)
Ceiling:17000 feet AGL
Clouds: scattered clouds at 15000 feet AGL, overcast cloud deck at 17000 feet AGL